Time;durP1;ratioP1;P1;durP2;ratioP2;P2;SDS_P1;SDS_P2;PMS_P1;PMS_P2;Temp;Humidity;BMP_temperature;BMP_pressure;BME280_temperature;BME280_humidity;BME280_pressure;Samples;Min_cycle;Max_cycle;Signal;HPM_P1;HPM_P2
2023/06/15 00:00:18;;;;;;;6.72;2.67;;;;;;;;;;5083507;27;92665;-79
2023/06/15 00:02:45;;;;;;;6.03;2.60;;;;;;;;;;5083497;27;92311;-79
2023/06/15 00:05:11;;;;;;;6.22;2.47;;;;;;;;;;5082974;27;92280;-78
2023/06/15 00:07:38;;;;;;;6.85;2.70;;;;;;;;;;5075863;27;91705;-79
2023/06/15 00:10:05;;;;;;;6.18;2.70;;;;;;;;;;5078724;27;92129;-79
2023/06/15 00:12:33;;;;;;;;;;;;;;;;;;5085382;27;92409;-79
2023/06/15 00:14:59;;;;;;;6.00;2.80;;;;;;;;;;5069614;27;94538;-79
2023/06/15 00:17:26;;;;;;;5.43;2.80;;;;;;;;;;5083259;27;94826;-79
2023/06/15 00:19:53;;;;;;;6.65;2.75;;;;;;;;;;5083105;27;92625;-79
2023/06/15 00:22:20;;;;;;;6.72;2.70;;;;;;;;;;5078234;27;92221;-79
2023/06/15 00:24:46;;;;;;;7.10;2.80;;;;;;;;;;5083742;27;92540;-79
2023/06/15 00:27:13;;;;;;;6.28;2.60;;;;;;;;;;5082704;27;92723;-79
2023/06/15 00:29:39;;;;;;;5.85;2.63;;;;;;;;;;5082201;27;92129;-79
2023/06/15 00:32:06;;;;;;;6.38;2.67;;;;;;;;;;5084071;27;92412;-79
2023/06/15 00:34:33;;;;;;;6.40;2.78;;;;;;;;;;5083656;27;94630;-79
2023/06/15 00:36:59;;;;;;;6.43;2.92;;;;;;;;;;5081662;27;92711;-79
2023/06/15 00:39:26;;;;;;;6.10;2.80;;;;;;;;;;5081051;27;95746;-80
2023/06/15 00:41:53;;;;;;;7.63;3.15;;;;;;;;;;5083186;27;92271;-80
2023/06/15 00:44:19;;;;;;;7.88;3.30;;;;;;;;;;5077815;27;92753;-79
2023/06/15 00:46:46;;;;;;;12.32;3.05;;;;;;;;;;5069760;27;95465;-79
2023/06/15 00:49:13;;;;;;;7.50;2.70;;;;;;;;;;5080032;27;92346;-79
2023/06/15 00:51:39;;;;;;;5.07;2.67;;;;;;;;;;5062742;27;95327;-79
2023/06/15 00:54:07;;;;;;;5.65;2.63;;;;;;;;;;5077834;27;93214;-79
2023/06/15 00:56:33;;;;;;;;;;;;;;;;;;5067865;27;91447;-79
2023/06/15 00:59:00;;;;;;;9.60;3.15;;;;;;;;;;5082197;27;95512;-79
2023/06/15 01:01:26;;;;;;;6.65;2.83;;;;;;;;;;5080450;27;92619;-79
2023/06/15 01:03:54;;;;;;;5.95;2.55;;;;;;;;;;5069512;27;94990;-79
2023/06/15 01:06:24;;;;;;;8.27;3.30;;;;;;;;;;5078802;27;94953;-79
2023/06/15 01:08:57;;;;;;;6.20;2.83;;;;;;;;;;5080917;27;92655;-79
2023/06/15 01:11:24;;;;;;;6.07;2.70;;;;;;;;;;5074625;27;92336;-79
2023/06/15 01:13:51;;;;;;;6.18;2.90;;;;;;;;;;5082414;27;93123;-79
2023/06/15 01:16:24;;;;;;;5.68;2.80;;;;;;;;;;5068645;27;92507;-79
2023/06/15 01:18:57;;;;;;;6.75;2.80;;;;;;;;;;5080085;27;95160;-80
2023/06/15 01:21:25;;;;;;;5.90;2.90;;;;;;;;;;5081890;27;91244;-80
2023/06/15 01:24:09;;;;;;;8.50;2.72;;;;;;;;;;5063862;27;94307;-80
2023/06/15 01:26:37;;;;;;;5.97;3.28;;;;;;;;;;5082353;27;92810;-80
2023/06/15 01:29:04;;;;;;;7.60;3.03;;;;;;;;;;5080443;27;94331;-80
2023/06/15 01:31:31;;;;;;;;;;;;;;;;;;5066186;27;97127;-80
2023/06/15 01:34:00;;;;;;;8.35;3.17;;;;;;;;;;5080363;27;120315;-80
2023/06/15 01:36:27;;;;;;;5.78;2.58;;;;;;;;;;5082175;27;92059;-80
2023/06/15 01:38:55;;;;;;;6.95;2.80;;;;;;;;;;5076635;27;94960;-80
2023/06/15 01:41:23;;;;;;;6.05;2.58;;;;;;;;;;5074054;27;92707;-80
2023/06/15 01:43:50;;;;;;;6.68;2.88;;;;;;;;;;5080495;27;94545;-80
2023/06/15 01:46:18;;;;;;;5.22;2.80;;;;;;;;;;5070576;27;91943;-80
2023/06/15 01:48:44;;;;;;;9.30;3.30;;;;;;;;;;5082224;27;92188;-80
2023/06/15 01:51:11;;;;;;;6.18;2.90;;;;;;;;;;5065439;27;94229;-79
2023/06/15 01:53:41;;;;;;;7.45;3.28;;;;;;;;;;5075818;27;95467;-80
2023/06/15 01:56:08;;;;;;;7.70;2.90;;;;;;;;;;5080366;27;92394;-80
2023/06/15 01:58:35;;;;;;;6.60;2.80;;;;;;;;;;5080755;27;92684;-80
2023/06/15 02:01:02;;;;;;;7.60;2.85;;;;;;;;;;5083183;27;94943;-79
2023/06/15 02:03:28;;;;;;;5.30;2.60;;;;;;;;;;5070426;27;95300;-79
2023/06/15 02:05:55;;;;;;;7.07;2.80;;;;;;;;;;5074305;27;95098;-79
2023/06/15 02:08:21;;;;;;;6.93;2.75;;;;;;;;;;5069123;27;92745;-79
2023/06/15 02:10:48;;;;;;;6.32;2.92;;;;;;;;;;5073476;27;94614;-80
2023/06/15 02:13:14;;;;;;;6.45;2.60;;;;;;;;;;5082205;27;94978;-80
2023/06/15 02:15:41;;;;;;;6.07;2.90;;;;;;;;;;5084085;27;92467;-80
2023/06/15 02:18:14;;;;;;;6.35;2.78;;;;;;;;;;5083896;27;94747;-79
2023/06/15 02:20:43;;;;;;;6.60;2.97;;;;;;;;;;5075505;27;92999;-80
2023/06/15 02:23:10;;;;;;;5.97;2.75;;;;;;;;;;5088215;27;92313;-79
2023/06/15 02:25:37;;;;;;;5.97;2.80;;;;;;;;;;5084791;27;94224;-80
2023/06/15 02:28:04;;;;;;;7.80;3.00;;;;;;;;;;5083601;27;92203;-80
2023/06/15 02:30:30;;;;;;;8.60;3.15;;;;;;;;;;5084079;27;92308;-80
2023/06/15 02:33:00;;;;;;;8.23;3.22;;;;;;;;;;5083797;27;94095;-80
2023/06/15 02:35:28;;;;;;;7.28;3.00;;;;;;;;;;5069405;27;91474;-80
2023/06/15 02:37:55;;;;;;;7.18;3.25;;;;;;;;;;5085335;27;93463;-80
2023/06/15 02:40:21;;;;;;;;;;;;;;;;;;5076032;27;92718;-83
2023/06/15 02:42:48;;;;;;;8.52;3.15;;;;;;;;;;5080420;27;115936;-81
2023/06/15 02:45:15;;;;;;;9.27;2.92;;;;;;;;;;5048762;27;97702;-81
2023/06/15 02:47:42;;;;;;;;;;;;;;;;;;5065074;27;92164;-81
2023/06/15 02:50:09;;;;;;;7.63;2.90;;;;;;;;;;5064152;27;107296;-81
2023/06/15 02:52:40;;;;;;;7.75;2.80;;;;;;;;;;5076550;27;95116;-82
2023/06/15 02:55:13;;;;;;;7.47;2.90;;;;;;;;;;5071508;27;92680;-78
2023/06/15 02:57:41;;;;;;;10.38;3.17;;;;;;;;;;5080413;27;92977;-81
2023/06/15 03:00:36;;;;;;;9.63;3.53;;;;;;;;;;5083443;27;94296;-80
2023/06/15 03:03:29;;;;;;;8.75;3.13;;;;;;;;;;5073343;27;99070;-80
2023/06/15 03:05:59;;;;;;;16.00;3.38;;;;;;;;;;5062925;27;93959;-80
2023/06/15 03:08:31;;;;;;;9.35;3.30;;;;;;;;;;5065351;27;94656;-80
2023/06/15 03:11:09;;;;;;;6.93;2.70;;;;;;;;;;5066926;27;95383;-79
2023/06/15 03:13:36;;;;;;;7.38;3.10;;;;;;;;;;5082766;27;95027;-81
2023/06/15 03:16:06;;;;;;;8.75;3.22;;;;;;;;;;5066071;27;92269;-80
2023/06/15 03:18:33;;;;;;;6.32;2.97;;;;;;;;;;5082579;27;92589;-80
2023/06/15 03:21:01;;;;;;;7.15;3.42;;;;;;;;;;5071261;27;94965;-80
2023/06/15 03:23:28;;;;;;;6.55;2.90;;;;;;;;;;5078803;27;92675;-80
2023/06/15 03:25:55;;;;;;;6.43;2.75;;;;;;;;;;5062789;27;94426;-80
2023/06/15 03:28:24;;;;;;;7.22;3.40;;;;;;;;;;5079023;27;94105;-80
2023/06/15 03:30:53;;;;;;;6.90;3.00;;;;;;;;;;5061993;27;94349;-80
2023/06/15 03:33:21;;;;;;;9.68;3.50;;;;;;;;;;5045930;27;97351;-81
2023/06/15 03:35:48;;;;;;;7.68;3.63;;;;;;;;;;5070080;27;92133;-81
2023/06/15 03:38:16;;;;;;;6.32;3.10;;;;;;;;;;5081957;27;94227;-81
2023/06/15 03:40:43;;;;;;;8.18;3.03;;;;;;;;;;5080154;27;95501;-81
2023/06/15 03:43:10;;;;;;;8.85;3.58;;;;;;;;;;5073148;27;92231;-81
2023/06/15 03:45:39;;;;;;;11.10;3.78;;;;;;;;;;5082116;27;92676;-80
2023/06/15 03:48:06;;;;;;;6.78;3.28;;;;;;;;;;5082184;27;94584;-80
2023/06/15 03:50:33;;;;;;;7.00;2.97;;;;;;;;;;5084470;27;91471;-80
2023/06/15 03:53:00;;;;;;;7.03;3.30;;;;;;;;;;5054588;27;95239;-80
2023/06/15 03:55:27;;;;;;;7.53;3.35;;;;;;;;;;5074886;27;92464;-81
2023/06/15 03:57:53;;;;;;;8.18;4.07;;;;;;;;;;5068761;27;94834;-80
2023/06/15 04:00:20;;;;;;;8.02;3.28;;;;;;;;;;5081637;27;94432;-80
2023/06/15 04:02:50;;;;;;;7.20;3.50;;;;;;;;;;5082037;27;92094;-79
2023/06/15 04:05:17;;;;;;;7.60;3.60;;;;;;;;;;5081240;27;93494;-80
2023/06/15 04:07:44;;;;;;;8.32;3.45;;;;;;;;;;5078775;27;95245;-80
2023/06/15 04:10:12;;;;;;;6.75;3.53;;;;;;;;;;5061241;27;92102;-79
2023/06/15 04:12:38;;;;;;;7.05;3.40;;;;;;;;;;5063739;27;94323;-79
2023/06/15 04:15:06;;;;;;;8.90;3.35;;;;;;;;;;5044805;27;91707;-81
2023/06/15 04:17:35;;;;;;;13.52;3.63;;;;;;;;;;5044598;27;97758;-80
2023/06/15 04:20:04;;;;;;;8.82;3.28;;;;;;;;;;5069294;27;94309;-79
2023/06/15 04:22:31;;;;;;;8.07;3.70;;;;;;;;;;5079539;27;95143;-80
2023/06/15 04:24:58;;;;;;;7.60;3.47;;;;;;;;;;5080856;27;94786;-79
2023/06/15 04:27:27;;;;;;;8.48;3.42;;;;;;;;;;5071684;27;92557;-80
2023/06/15 04:29:54;;;;;;;9.40;3.38;;;;;;;;;;5061687;27;92015;-80
2023/06/15 04:32:25;;;;;;;;;;;;;;;;;;5044644;27;94680;-81
2023/06/15 04:34:54;;;;;;;10.23;3.58;;;;;;;;;;5072844;27;114501;-82
2023/06/15 04:37:23;;;;;;;8.18;3.58;;;;;;;;;;5063490;27;95124;-82
2023/06/15 04:39:50;;;;;;;6.90;3.30;;;;;;;;;;5064485;27;91901;-81
2023/06/15 04:42:18;;;;;;;7.07;3.28;;;;;;;;;;5060738;27;92709;-81
2023/06/15 04:44:45;;;;;;;7.78;3.38;;;;;;;;;;5074221;27;94770;-81
2023/06/15 04:47:12;;;;;;;7.80;3.13;;;;;;;;;;5076710;27;95449;-80
2023/06/15 04:49:42;;;;;;;7.65;3.28;;;;;;;;;;5062675;27;95926;-80
2023/06/15 04:52:09;;;;;;;8.23;3.40;;;;;;;;;;5069701;27;95366;-81
2023/06/15 04:54:38;;;;;;;10.60;3.30;;;;;;;;;;5069920;27;95724;-81
2023/06/15 04:57:08;;;;;;;8.48;3.20;;;;;;;;;;5063682;27;92322;-81
2023/06/15 04:59:38;;;;;;;7.97;3.40;;;;;;;;;;5060276;27;99357;-81
2023/06/15 05:02:07;;;;;;;6.13;3.03;;;;;;;;;;5062155;27;92109;-81
2023/06/15 05:04:36;;;;;;;7.10;3.20;;;;;;;;;;5081187;27;95059;-81
2023/06/15 05:07:03;;;;;;;;;;;;;;;;;;5064180;27;95901;-81
2023/06/15 05:09:34;;;;;;;7.93;3.20;;;;;;;;;;5081175;27;92179;-79
2023/06/15 05:12:06;;;;;;;8.15;3.33;;;;;;;;;;5071631;27;94946;-80
2023/06/15 05:14:33;;;;;;;10.80;3.53;;;;;;;;;;5049294;27;94454;-80
2023/06/15 05:17:03;;;;;;;7.93;3.25;;;;;;;;;;5071797;27;93912;-81
2023/06/15 05:19:30;;;;;;;9.38;3.53;;;;;;;;;;5076106;27;94904;-82
2023/06/15 05:21:58;;;;;;;6.90;3.10;;;;;;;;;;5074606;27;92372;-80
2023/06/15 05:24:25;;;;;;;6.90;3.42;;;;;;;;;;5062717;27;93792;-80
2023/06/15 05:26:51;;;;;;;8.70;3.60;;;;;;;;;;5073872;27;92756;-80
2023/06/15 05:29:19;;;;;;;7.43;3.58;;;;;;;;;;5060447;27;91404;-81
2023/06/15 05:31:46;;;;;;;7.78;3.30;;;;;;;;;;5063735;27;94411;-81
2023/06/15 05:34:14;;;;;;;8.93;3.30;;;;;;;;;;5070262;27;95033;-79
2023/06/15 05:36:41;;;;;;;9.10;3.50;;;;;;;;;;5074168;27;95027;-79
2023/06/15 05:39:27;;;;;;;9.32;3.22;;;;;;;;;;5080423;27;98124;-78
2023/06/15 05:41:54;;;;;;;9.90;3.72;;;;;;;;;;5074212;27;92480;-79
2023/06/15 05:44:21;;;;;;;8.65;3.33;;;;;;;;;;5058162;27;94810;-79
2023/06/15 05:46:50;;;;;;;10.05;3.58;;;;;;;;;;5077471;27;93079;-80
2023/06/15 05:49:17;;;;;;;8.55;3.63;;;;;;;;;;5057085;27;92256;-80
2023/06/15 05:51:44;;;;;;;;;;;;;;;;;;5045268;27;95023;-80
2023/06/15 05:54:11;;;;;;;9.55;3.60;;;;;;;;;;5073508;27;91869;-80
2023/06/15 05:56:38;;;;;;;9.13;3.35;;;;;;;;;;5074935;27;92090;-79
2023/06/15 05:59:05;;;;;;;7.13;3.00;;;;;;;;;;5062061;27;95347;-78
2023/06/15 06:01:49;;;;;;;7.50;3.30;;;;;;;;;;5078592;27;102006;-78
2023/06/15 06:04:16;;;;;;;8.13;3.03;;;;;;;;;;5065459;27;95368;-80
2023/06/15 06:06:44;;;;;;;7.18;3.20;;;;;;;;;;5075478;27;95255;-79
2023/06/15 06:09:11;;;;;;;7.22;3.10;;;;;;;;;;5077493;27;92219;-79
2023/06/15 06:11:38;;;;;;;8.65;3.33;;;;;;;;;;5061159;27;94415;-79
2023/06/15 06:14:05;;;;;;;7.72;3.20;;;;;;;;;;5057393;27;95143;-79
2023/06/15 06:16:31;;;;;;;9.15;3.20;;;;;;;;;;5059620;27;91852;-79
2023/06/15 06:18:59;;;;;;;7.28;3.10;;;;;;;;;;5064081;27;95508;-80
2023/06/15 06:21:26;;;;;;;6.32;2.92;;;;;;;;;;5056885;27;95387;-80
2023/06/15 06:23:53;;;;;;;6.78;2.88;;;;;;;;;;5075279;27;92196;-80
2023/06/15 06:26:19;;;;;;;7.07;2.95;;;;;;;;;;5040496;27;97383;-80
2023/06/15 06:28:48;;;;;;;6.35;2.90;;;;;;;;;;5080061;27;92491;-80
2023/06/15 06:31:14;;;;;;;8.73;3.20;;;;;;;;;;5060357;27;94912;-80
2023/06/15 06:33:41;;;;;;;7.25;2.90;;;;;;;;;;5066020;27;93013;-81
2023/06/15 06:36:10;;;;;;;8.07;3.10;;;;;;;;;;5065615;27;92254;-78
2023/06/15 06:38:37;;;;;;;8.50;3.70;;;;;;;;;;5059517;27;93402;-80
2023/06/15 06:41:22;;;;;;;12.13;3.58;;;;;;;;;;5064645;27;92903;-79
2023/06/15 06:43:49;;;;;;;10.60;3.67;;;;;;;;;;5066905;27;91416;-80
2023/06/15 06:46:15;;;;;;;9.82;3.80;;;;;;;;;;5080927;27;93245;-82
2023/06/15 06:48:42;;;;;;;8.93;3.83;;;;;;;;;;5068169;27;92184;-81
2023/06/15 06:51:08;;;;;;;14.30;4.45;;;;;;;;;;5076488;27;94870;-86
2023/06/15 06:53:35;;;;;;;15.32;4.53;;;;;;;;;;5067430;27;97278;-87
2023/06/15 06:56:01;;;;;;;9.10;3.88;;;;;;;;;;5072833;27;93011;-86
2023/06/15 06:58:28;;;;;;;9.93;3.45;;;;;;;;;;5066337;27;95350;-85
2023/06/15 07:00:54;;;;;;;10.55;3.80;;;;;;;;;;5062788;27;94184;-86
2023/06/15 07:03:21;;;;;;;8.10;3.78;;;;;;;;;;5067500;27;92189;-86
2023/06/15 07:05:48;;;;;;;10.18;4.10;;;;;;;;;;5064852;27;93478;-85
2023/06/15 07:08:14;;;;;;;10.07;4.10;;;;;;;;;;5074442;27;92299;-86
2023/06/15 07:10:41;;;;;;;10.48;3.72;;;;;;;;;;5070434;27;92096;-85
2023/06/15 07:13:07;;;;;;;9.35;4.00;;;;;;;;;;5075779;27;92705;-84
2023/06/15 07:15:34;;;;;;;8.43;3.92;;;;;;;;;;5061731;27;94638;-84
2023/06/15 07:18:01;;;;;;;10.10;3.72;;;;;;;;;;5061737;27;98201;-84
2023/06/15 07:20:27;;;;;;;7.68;3.40;;;;;;;;;;5076766;27;93088;-85
2023/06/15 07:22:54;;;;;;;8.85;3.78;;;;;;;;;;5065870;27;92322;-84
2023/06/15 07:25:20;;;;;;;8.38;3.70;;;;;;;;;;5072441;27;92695;-83
2023/06/15 07:27:47;;;;;;;7.68;3.40;;;;;;;;;;5063618;27;95544;-83
2023/06/15 07:30:13;;;;;;;8.80;3.20;;;;;;;;;;5064847;27;92167;-84
2023/06/15 07:32:41;;;;;;;8.40;4.10;;;;;;;;;;5063109;27;91958;-84
2023/06/15 07:35:07;;;;;;;9.73;3.92;;;;;;;;;;5071571;27;92426;-83
2023/06/15 07:37:34;;;;;;;8.68;3.78;;;;;;;;;;5064786;27;95144;-82
2023/06/15 07:40:01;;;;;;;9.93;4.22;;;;;;;;;;5067088;27;95085;-84
2023/06/15 07:42:27;;;;;;;10.05;4.10;;;;;;;;;;5072395;27;92405;-84
2023/06/15 07:44:54;;;;;;;8.57;3.72;;;;;;;;;;5065439;27;92091;-84
2023/06/15 07:47:20;;;;;;;8.65;4.05;;;;;;;;;;5060932;27;92637;-83
2023/06/15 07:49:47;;;;;;;10.25;4.00;;;;;;;;;;5064234;27;92595;-83
2023/06/15 07:52:13;;;;;;;8.88;3.60;;;;;;;;;;5066653;27;92340;-83
2023/06/15 07:54:41;;;;;;;10.13;3.92;;;;;;;;;;5063101;27;92382;-83
2023/06/15 07:57:08;;;;;;;10.48;4.00;;;;;;;;;;5069506;27;92761;-84
2023/06/15 07:59:35;;;;;;;9.27;4.10;;;;;;;;;;5061164;27;96860;-82
2023/06/15 08:02:02;;;;;;;8.75;3.63;;;;;;;;;;5064532;27;92668;-83
2023/06/15 08:04:29;;;;;;;9.45;3.78;;;;;;;;;;5059782;27;96713;-85
2023/06/15 08:06:55;;;;;;;12.57;4.07;;;;;;;;;;5064017;27;93232;-83
2023/06/15 08:09:22;;;;;;;8.40;3.75;;;;;;;;;;5060249;27;92277;-83
2023/06/15 08:11:49;;;;;;;10.35;4.05;;;;;;;;;;5065087;27;92687;-86
2023/06/15 08:14:16;;;;;;;9.45;4.05;;;;;;;;;;5055021;27;92387;-83
2023/06/15 08:16:42;;;;;;;9.65;3.97;;;;;;;;;;5064844;27;92322;-82
2023/06/15 08:19:09;;;;;;;9.48;4.13;;;;;;;;;;5059094;27;95339;-82
2023/06/15 08:21:35;;;;;;;8.48;3.60;;;;;;;;;;5068743;27;91640;-83
2023/06/15 08:24:02;;;;;;;9.68;4.20;;;;;;;;;;5070707;27;94116;-83
2023/06/15 08:26:29;;;;;;;9.38;3.80;;;;;;;;;;5070548;27;92467;-82
2023/06/15 08:28:55;;;;;;;12.52;3.95;;;;;;;;;;5064104;27;94503;-83
2023/06/15 08:31:39;;;;;;;8.77;4.22;;;;;;;;;;5050646;27;102083;-83
2023/06/15 08:34:09;;;;;;;9.25;3.80;;;;;;;;;;5071430;27;92673;-83
2023/06/15 08:36:36;;;;;;;10.45;4.20;;;;;;;;;;5062852;27;92457;-83
2023/06/15 08:39:05;;;;;;;9.50;3.85;;;;;;;;;;5074517;27;92781;-83
2023/06/15 08:41:33;;;;;;;9.90;3.90;;;;;;;;;;5064978;27;92423;-83
2023/06/15 08:44:00;;;;;;;12.02;4.10;;;;;;;;;;5069050;27;94236;-83
2023/06/15 08:46:27;;;;;;;8.85;4.15;;;;;;;;;;5071372;27;92083;-82
2023/06/15 08:48:55;;;;;;;8.75;3.53;;;;;;;;;;5074947;27;92109;-84
2023/06/15 08:51:22;;;;;;;9.88;3.90;;;;;;;;;;5071517;27;92534;-83
2023/06/15 08:53:50;;;;;;;9.95;4.00;;;;;;;;;;5072610;27;95628;-84
2023/06/15 08:56:16;;;;;;;9.02;3.70;;;;;;;;;;5079603;27;93789;-83
2023/06/15 08:58:49;;;;;;;9.90;4.55;;;;;;;;;;5071694;27;95632;-85
2023/06/15 09:01:18;;;;;;;7.82;4.00;;;;;;;;;;5072374;27;92206;-83
2023/06/15 09:03:45;;;;;;;9.80;3.83;;;;;;;;;;5065456;27;92348;-82
2023/06/15 09:06:12;;;;;;;11.73;3.97;;;;;;;;;;5059350;27;95047;-83
2023/06/15 09:08:39;;;;;;;;;;;;;;;;;;5065237;27;92155;-83
2023/06/15 09:11:06;;;;;;;9.20;3.80;;;;;;;;;;5073850;27;111522;-83
2023/06/15 09:13:33;;;;;;;8.75;3.45;;;;;;;;;;5076129;27;95414;-84
2023/06/15 09:16:00;;;;;;;9.63;4.35;;;;;;;;;;5075644;27;92192;-83
2023/06/15 09:18:27;;;;;;;8.65;3.90;;;;;;;;;;5067498;27;94996;-83
2023/06/15 09:20:58;;;;;;;8.48;3.53;;;;;;;;;;5059821;27;92764;-83
2023/06/15 09:23:25;;;;;;;8.23;3.45;;;;;;;;;;5071315;27;92507;-83
2023/06/15 09:25:52;;;;;;;7.18;3.47;;;;;;;;;;5073137;27;93093;-83
2023/06/15 09:28:26;;;;;;;8.13;4.05;;;;;;;;;;5075149;27;94474;-83
2023/06/15 09:30:55;;;;;;;8.93;3.95;;;;;;;;;;5065270;27;92138;-83
2023/06/15 09:33:22;;;;;;;8.27;3.65;;;;;;;;;;5074746;27;95232;-82
2023/06/15 09:35:58;;;;;;;10.15;3.90;;;;;;;;;;5066456;27;91440;-86
2023/06/15 09:38:25;;;;;;;8.80;3.72;;;;;;;;;;5077301;27;92446;-85
2023/06/15 09:40:51;;;;;;;;;;;;;;;;;;5073309;27;92271;-84
2023/06/15 09:43:19;;;;;;;8.55;3.38;;;;;;;;;;5067288;27;103966;-84
2023/06/15 09:45:48;;;;;;;8.25;3.60;;;;;;;;;;5078668;27;92710;-86
2023/06/15 09:48:14;;;;;;;10.70;3.83;;;;;;;;;;5060311;27;92580;-86
2023/06/15 09:50:41;;;;;;;10.13;4.28;;;;;;;;;;5071815;27;92595;-81
2023/06/15 09:53:11;;;;;;;9.48;3.60;;;;;;;;;;5071627;27;96902;-80
2023/06/15 09:55:44;;;;;;;9.35;3.92;;;;;;;;;;5073310;27;92458;-81
2023/06/15 09:58:11;;;;;;;6.93;3.58;;;;;;;;;;5058032;27;100822;-81
2023/06/15 10:00:37;;;;;;;7.78;3.42;;;;;;;;;;5058881;27;98302;-81
2023/06/15 10:03:06;;;;;;;7.57;3.70;;;;;;;;;;5059604;27;99029;-79
2023/06/15 10:05:33;;;;;;;9.60;3.80;;;;;;;;;;5053795;27;99859;-82
2023/06/15 10:08:04;;;;;;;11.23;3.70;;;;;;;;;;5065893;27;99132;-80
2023/06/15 10:10:32;;;;;;;9.25;3.72;;;;;;;;;;5060927;27;99603;-81
2023/06/15 10:13:00;;;;;;;8.85;3.70;;;;;;;;;;5069423;27;98990;-81
2023/06/15 10:15:29;;;;;;;10.65;3.28;;;;;;;;;;5072391;27;98377;-82
2023/06/15 10:18:01;;;;;;;11.45;3.70;;;;;;;;;;5061743;27;99856;-83
2023/06/15 10:20:29;;;;;;;11.95;3.60;;;;;;;;;;5064175;27;98988;-80
2023/06/15 10:23:00;;;;;;;7.95;3.40;;;;;;;;;;5066652;27;98181;-82
2023/06/15 10:25:33;;;;;;;7.68;3.30;;;;;;;;;;5068656;27;97801;-82
2023/06/15 10:27:59;;;;;;;7.90;3.60;;;;;;;;;;5061664;27;99334;-85
2023/06/15 10:30:42;;;;;;;10.65;3.60;;;;;;;;;;5064313;27;98394;-83
2023/06/15 10:33:08;;;;;;;6.80;3.47;;;;;;;;;;5059733;27;99615;-85
2023/06/15 10:35:42;;;;;;;9.13;3.70;;;;;;;;;;5066522;27;98775;-85
2023/06/15 10:38:29;;;;;;;9.95;3.38;;;;;;;;;;5061063;27;98501;-85
2023/06/15 10:40:56;;;;;;;8.80;3.28;;;;;;;;;;5062437;27;98576;-84
2023/06/15 10:43:25;;;;;;;7.47;3.33;;;;;;;;;;5067003;27;98505;-85
2023/06/15 10:45:52;;;;;;;7.10;3.25;;;;;;;;;;5080482;27;98934;-83
2023/06/15 10:48:26;;;;;;;6.80;2.88;;;;;;;;;;5062930;27;99382;-82
2023/06/15 10:51:02;;;;;;;8.40;3.13;;;;;;;;;;5069229;27;99399;-82
2023/06/15 10:53:34;;;;;;;8.65;2.90;;;;;;;;;;5077203;27;98747;-82
2023/06/15 10:56:07;;;;;;;8.20;3.40;;;;;;;;;;5046458;27;98895;-83
2023/06/15 10:58:33;;;;;;;;;;;;;;;;;;5071013;27;99669;-83
2023/06/15 11:01:13;;;;;;;10.73;2.92;;;;;;;;;;5072920;27;119357;-83
2023/06/15 11:03:41;;;;;;;5.63;2.92;;;;;;;;;;5060728;27;98305;-83
2023/06/15 11:06:18;;;;;;;8.32;2.97;;;;;;;;;;5051218;27;100987;-83
2023/06/15 11:08:48;;;;;;;7.95;2.67;;;;;;;;;;5065086;27;99290;-84
2023/06/15 11:11:15;;;;;;;8.07;3.05;;;;;;;;;;5067292;27;99469;-83
2023/06/15 11:14:08;;;;;;;9.27;2.97;;;;;;;;;;5067800;27;101950;-83
2023/06/15 11:16:35;;;;;;;5.97;2.67;;;;;;;;;;5050086;27;98066;-83
2023/06/15 11:19:11;;;;;;;8.63;3.30;;;;;;;;;;5069545;27;98401;-83
2023/06/15 11:21:42;;;;;;;8.38;3.30;;;;;;;;;;5068155;27;103159;-83
2023/06/15 11:24:13;;;;;;;7.85;3.58;;;;;;;;;;5072230;27;99079;-88
2023/06/15 11:26:43;;;;;;;6.60;3.25;;;;;;;;;;5068520;27;102105;-88
2023/06/15 11:29:12;;;;;;;8.77;3.60;;;;;;;;;;5063381;27;101910;-86
2023/06/15 11:31:40;;;;;;;8.88;3.80;;;;;;;;;;5074814;27;102389;-86
2023/06/15 11:34:10;;;;;;;11.20;3.70;;;;;;;;;;5068275;27;99321;-86
2023/06/15 11:36:37;;;;;;;11.95;3.60;;;;;;;;;;5064275;27;98236;-85
2023/06/15 11:39:04;;;;;;;11.27;3.60;;;;;;;;;;5071580;27;98720;-85
2023/06/15 11:41:31;;;;;;;10.70;3.35;;;;;;;;;;5064282;27;98496;-85
2023/06/15 11:43:58;;;;;;;8.38;3.20;;;;;;;;;;5065065;27;98778;-85
2023/06/15 11:46:25;;;;;;;8.32;3.03;;;;;;;;;;5053114;27;101362;-85
2023/06/15 11:48:55;;;;;;;8.52;3.38;;;;;;;;;;5058924;27;99598;-85
2023/06/15 11:51:22;;;;;;;9.00;2.97;;;;;;;;;;5079824;27;98457;-85
2023/06/15 11:53:51;;;;;;;8.30;3.17;;;;;;;;;;5065880;27;98989;-85
2023/06/15 11:56:17;;;;;;;7.05;3.10;;;;;;;;;;5066924;27;98632;-85
2023/06/15 11:58:48;;;;;;;7.07;3.08;;;;;;;;;;5063772;27;98411;-85
2023/06/15 12:01:15;;;;;;;7.13;2.90;;;;;;;;;;5056015;27;101430;-84
2023/06/15 12:03:49;;;;;;;8.65;2.83;;;;;;;;;;5060865;27;98465;-86
2023/06/15 12:06:19;;;;;;;6.97;3.35;;;;;;;;;;5058577;27;101520;-85
2023/06/15 12:08:50;;;;;;;6.03;2.75;;;;;;;;;;5057216;27;98897;-84
2023/06/15 12:11:23;;;;;;;6.93;2.83;;;;;;;;;;5057742;27;98313;-85
2023/06/15 12:13:50;;;;;;;;;;;;;;;;;;5058966;27;100334;-86
2023/06/15 12:16:17;;;;;;;7.95;3.30;;;;;;;;;;5073515;27;109157;-85
2023/06/15 12:18:52;;;;;;;6.53;2.80;;;;;;;;;;5061060;27;100722;-86
2023/06/15 12:21:18;;;;;;;7.22;2.80;;;;;;;;;;5071488;27;98862;-80
2023/06/15 12:23:48;;;;;;;7.80;2.75;;;;;;;;;;5056294;27;98470;-82
2023/06/15 12:26:15;;;;;;;;;;;;;;;;;;5057450;27;99701;-80
2023/06/15 12:28:41;;;;;;;6.22;2.60;;;;;;;;;;5066954;27;120393;-82
2023/06/15 12:31:10;;;;;;;5.68;2.53;;;;;;;;;;5063994;27;97358;-86
2023/06/15 12:33:42;;;;;;;6.13;2.50;;;;;;;;;;5060741;27;102070;-83
2023/06/15 12:36:12;;;;;;;6.63;2.60;;;;;;;;;;5061569;27;99664;-90
2023/06/15 12:38:39;;;;;;;5.57;2.40;;;;;;;;;;5056020;27;101128;-91
2023/06/15 12:41:13;;;;;;;5.00;2.63;;;;;;;;;;5070342;27;99226;-88
2023/06/15 12:43:39;;;;;;;5.57;2.30;;;;;;;;;;5057816;27;105327;-88
2023/06/15 12:46:06;;;;;;;4.65;2.28;;;;;;;;;;5059215;27;98782;-90
2023/06/15 12:48:33;;;;;;;5.90;2.40;;;;;;;;;;5060621;27;98931;-87
2023/06/15 12:50:59;;;;;;;6.32;2.28;;;;;;;;;;5077952;27;105957;-86
2023/06/15 12:53:26;;;;;;;4.15;2.10;;;;;;;;;;5070286;27;98364;-87
2023/06/15 12:55:52;;;;;;;6.82;2.25;;;;;;;;;;5059986;27;98024;-88
2023/06/15 12:58:19;;;;;;;5.68;2.10;;;;;;;;;;5061099;27;99091;-87
2023/06/15 13:00:46;;;;;;;5.47;2.13;;;;;;;;;;5056618;27;99650;-87
2023/06/15 13:03:13;;;;;;;4.70;2.00;;;;;;;;;;5055252;27;98978;-87
2023/06/15 13:05:43;;;;;;;5.30;2.10;;;;;;;;;;5056343;27;101730;-83
2023/06/15 13:08:09;;;;;;;5.18;2.20;;;;;;;;;;5056986;27;98805;-83
2023/06/15 13:10:36;;;;;;;5.28;2.20;;;;;;;;;;5057662;27;98351;-82
2023/06/15 13:13:03;;;;;;;4.30;2.10;;;;;;;;;;5056624;27;98877;-81
2023/06/15 13:15:30;;;;;;;5.03;2.25;;;;;;;;;;5054299;27;105355;-82
2023/06/15 13:17:57;;;;;;;6.47;2.42;;;;;;;;;;5059270;27;98551;-83
2023/06/15 13:20:24;;;;;;;;;;;;;;;;;;5067745;27;98521;-80
2023/06/15 13:22:50;;;;;;;4.93;2.20;;;;;;;;;;5068114;27;107311;-81
2023/06/15 13:25:18;;;;;;;4.38;2.10;;;;;;;;;;5062355;27;101406;-80
2023/06/15 13:27:44;;;;;;;5.35;2.20;;;;;;;;;;5072784;27;99954;-83
2023/06/15 13:30:13;;;;;;;6.97;3.00;;;;;;;;;;5059224;27;98295;-84
2023/06/15 13:32:40;;;;;;;7.05;2.78;;;;;;;;;;5077558;27;98573;-86
2023/06/15 13:35:08;;;;;;;5.10;2.60;;;;;;;;;;5063396;27;101093;-88
2023/06/15 13:37:36;;;;;;;6.50;2.67;;;;;;;;;;5055920;27;98187;-88
2023/06/15 13:40:07;;;;;;;7.47;2.85;;;;;;;;;;5058345;27;101679;-87
2023/06/15 13:42:37;;;;;;;6.78;2.70;;;;;;;;;;5067237;27;98256;-87
2023/06/15 13:45:16;;;;;;;7.05;2.65;;;;;;;;;;5070146;27;101199;-89
2023/06/15 13:47:46;;;;;;;6.40;2.60;;;;;;;;;;5058557;27;103349;-89
2023/06/15 13:50:15;;;;;;;7.80;2.78;;;;;;;;;;5068943;27;98343;-88
2023/06/15 13:52:46;;;;;;;6.25;2.83;;;;;;;;;;5068717;27;99469;-88
2023/06/15 13:55:13;;;;;;;6.45;2.80;;;;;;;;;;5076467;27;99484;-89
2023/06/15 13:57:39;;;;;;;7.00;2.60;;;;;;;;;;5073575;27;98495;-89
2023/06/15 14:00:07;;;;;;;5.78;2.85;;;;;;;;;;5047990;27;101469;-87
2023/06/15 14:02:37;;;;;;;5.30;2.63;;;;;;;;;;5064417;27;98692;-88
2023/06/15 14:05:04;;;;;;;10.82;3.00;;;;;;;;;;5075567;27;100778;-87
2023/06/15 14:07:34;;;;;;;6.68;2.70;;;;;;;;;;5079123;27;98764;-88
2023/06/15 14:10:00;;;;;;;5.35;2.60;;;;;;;;;;5080536;27;97515;-87
2023/06/15 14:12:27;;;;;;;6.00;2.40;;;;;;;;;;5062633;27;98684;-86
2023/06/15 14:14:53;;;;;;;5.70;2.60;;;;;;;;;;5070215;27;98786;-88
2023/06/15 14:17:20;;;;;;;6.20;2.75;;;;;;;;;;5067498;27;99038;-89
2023/06/15 14:19:47;;;;;;;6.45;2.85;;;;;;;;;;5048371;27;101937;-87
2023/06/15 14:22:14;;;;;;;;;;;;;;;;;;5078660;27;99554;-90
2023/06/15 14:24:40;;;;;;;5.43;2.70;;;;;;;;;;5082045;27;98208;-89
2023/06/15 14:27:07;;;;;;;5.32;2.58;;;;;;;;;;5064318;27;98821;-88
2023/06/15 14:29:33;;;;;;;7.60;2.90;;;;;;;;;;5079393;27;98329;-90
2023/06/15 14:32:00;;;;;;;5.75;2.70;;;;;;;;;;5075600;27;101176;-89
2023/06/15 14:34:27;;;;;;;6.55;2.70;;;;;;;;;;5067963;27;98381;-89
2023/06/15 14:36:53;;;;;;;7.30;2.90;;;;;;;;;;5079383;27;98507;-89
2023/06/15 14:39:20;;;;;;;5.65;2.75;;;;;;;;;;5073704;27;98436;-89
2023/06/15 14:41:47;;;;;;;8.75;3.15;;;;;;;;;;5067369;27;99463;-90
2023/06/15 14:44:13;;;;;;;5.82;2.60;;;;;;;;;;5079406;27;98545;-88
2023/06/15 14:46:41;;;;;;;6.07;3.00;;;;;;;;;;5073402;27;98401;-88
2023/06/15 14:49:08;;;;;;;6.97;3.08;;;;;;;;;;5068052;27;98696;-90
2023/06/15 14:51:35;;;;;;;6.13;2.88;;;;;;;;;;5064398;27;102619;-91